Sunday, January 20, 2019, 1:56 AM EST
Back to Local

KSWF, Newburgh / Stewart

Location: New Windsor, NY, United States Lat: 41.5
Local Time: 1:56 AM EST ( 6:56 GMT) Lon: -74.1
Time Zone: US/Eastern Elev: 492 ft

Show me the last for .
Show Coded

Time T Td Feel RH Dir Speed Gust Alt SLP Vis Weather Sky Remarks
2019-01-20 00:45 21 21 11 100 110° 9 - 29.83 - 0 None
2019-01-19 23:45 32 23 26 68 80° 7 - 29.85 - 0 -SN OVC004 Pressure falling rapidly
2019-01-19 22:45 25 25 14 100 70° 12 - 29.91 - 0 -SN OVC004 Pressure falling rapidly
2019-01-19 21:45 23 23 12 100 70° 10 - 29.97 - 1 SN OVC005 Pressure falling rapidly
2019-01-19 19:45 25 25 18 100 80° 6 - 30.04 - 1 -SN BR OVC005 Pressure falling rapidly
2019-01-19 18:45 27 25 20 92 80° 6 - 30.10 - 2 -SN BR BKN010 OVC020 None
2019-01-19 17:45 28 23 22 79 80° 6 - 30.11 - 7 -SN OVC030 None
2019-01-19 16:45 32 23 26 68 70° 6 - 30.11 - 10 OVC040 None
2019-01-19 15:45 32 23 26 68 90° 6 - 30.17 - 20 OVC035 None
2019-01-19 14:45 32 21 24 63 80° 9 - 30.16 - 20 OVC035 None
2019-01-19 13:45 32 21 24 63 80° 9 - 30.16 - 20 OVC035 None
2019-01-19 12:45 32 21 24 63 80° 9 - 30.21 - 20 OVC040 None
2019-01-19 11:45 32 21 24 63 80° 9 - 30.24 - 20 OVC040 None
2019-01-19 10:45 30 21 22 68 80° 9 - 30.28 - 15 OVC030 None
2019-01-19 08:45 30 25 24 80 Variable 6 - 30.26 - 15 BKN040 None
2019-01-19 07:45 21 19 - 92 - Calm - 30.22 - 20 FEW040 None
2019-01-19 06:45 19 19 - 100 - Calm - 30.21 - 10 FEW040 None
2019-01-19 05:45 23 21 - 92 - Calm - 30.21 - 10 FEW040 None
2019-01-19 04:45 21 19 14 92 270° 6 - 30.18 - 10 FEW045 None
2019-01-19 03:45 25 21 17 85 270° 7 - 30.19 - 7 FEW045 None
2019-01-19 02:45 23 21 16 92 270° 6 - 30.19 - 10 BKN050 None

Support USWX by starting your Amazon purchase here.